Aviation Digital Data Service (ADDS)

Output produced by TAFs form (1638 UTC 18 April 2014)
found at http://aviationweather.gov/adds/tafs/
 
KRIL 181120Z 1812/1912 00000KT P6SM FEW250 
     FM181900 24012G25KT P6SM SCT120 BKN250 
     FM190300 19006KT P6SM SCT100 BKN150 
     FM190900 20010KT P6SM OVC120